<?xml version="1.0" encoding="UTF-8" standalone="no" ?>
<gpx xmlns="http://www.topografix.com/GPX/1/1" xmlns:xsi="http://www.w3.org/2001/XMLSchema-instance" xsi:schemaLocation="http://www.topografix.com/GPX/1/1 http://www.topografix.com/GPX/1/1/gpx.xsd" version="1.1" creator="VisuGPX - https://www.visugpx.com">
  <metadata>
    <name>Circuit Masseube</name>
    <desc><![CDATA[Petit circuit autour de Masseube (32) empruntant des \"pistes\" de 4*4 avec pas mal d\'ornières.
Effectuée par temps humide, certaines descentes sont (un peu) glissantes  ]]></desc>
  </metadata>
  <trk>
    <name><![CDATA[ACTIVE LOG114216]]></name>
    <trkseg>
      <trkpt lat="43.43536" lon="0.56572">
        <ele>240.673</ele>
        <time>2015-04-30T09:42:16Z</time>
      </trkpt>
      <trkpt lat="43.43533" lon="0.56577">
        <ele>240.953</ele>
        <time>2015-04-30T09:43:46Z</time>
      </trkpt>
      <trkpt lat="43.43533" lon="0.56581">
        <ele>240.895</ele>
        <time>2015-04-30T09:44:07Z</time>
      </trkpt>
      <trkpt lat="43.43529" lon="0.56582">
        <ele>241.017</ele>
        <time>2015-04-30T09:44:48Z</time>
      </trkpt>
      <trkpt lat="43.43533" lon="0.56582">
        <ele>241.048</ele>
        <time>2015-04-30T09:44:59Z</time>
      </trkpt>
      <trkpt lat="43.43533" lon="0.56584">
        <ele>237.62</ele>
        <time>2015-04-30T09:45:26Z</time>
      </trkpt>
      <trkpt lat="43.43529" lon="0.56585">
        <ele>238.551</ele>
        <time>2015-04-30T09:45:47Z</time>
      </trkpt>
      <trkpt lat="43.43526" lon="0.56582">
        <ele>239.147</ele>
        <time>2015-04-30T09:46:19Z</time>
      </trkpt>
      <trkpt lat="43.43534" lon="0.56591">
        <ele>238.608</ele>
        <time>2015-04-30T09:46:33Z</time>
      </trkpt>
      <trkpt lat="43.43533" lon="0.56589">
        <ele>238.712</ele>
        <time>2015-04-30T09:46:52Z</time>
      </trkpt>
      <trkpt lat="43.43531" lon="0.5658">
        <ele>238.626</ele>
        <time>2015-04-30T09:47:43Z</time>
      </trkpt>
      <trkpt lat="43.43533" lon="0.56581">
        <ele>239.033</ele>
        <time>2015-04-30T09:48:03Z</time>
      </trkpt>
      <trkpt lat="43.43531" lon="0.5658">
        <ele>239.397</ele>
        <time>2015-04-30T09:48:37Z</time>
      </trkpt>
      <trkpt lat="43.43529" lon="0.56579">
        <ele>239.891</ele>
        <time>2015-04-30T09:49:30Z</time>
      </trkpt>
      <trkpt lat="43.4353" lon="0.56579">
        <ele>239.29</ele>
        <time>2015-04-30T09:49:59Z</time>
      </trkpt>
      <trkpt lat="43.43532" lon="0.56574">
        <ele>239.7</ele>
        <time>2015-04-30T09:50:25Z</time>
      </trkpt>
      <trkpt lat="43.43529" lon="0.56577">
        <ele>239.333</ele>
        <time>2015-04-30T09:50:55Z</time>
      </trkpt>
      <trkpt lat="43.4353" lon="0.56578">
        <ele>239.562</ele>
        <time>2015-04-30T09:51:04Z</time>
      </trkpt>
      <trkpt lat="43.43527" lon="0.56576">
        <ele>239.721</ele>
        <time>2015-04-30T09:51:39Z</time>
      </trkpt>
      <trkpt lat="43.43534" lon="0.56582">
        <ele>239.346</ele>
        <time>2015-04-30T09:53:13Z</time>
      </trkpt>
      <trkpt lat="43.43531" lon="0.56584">
        <ele>239.394</ele>
        <time>2015-04-30T09:53:26Z</time>
      </trkpt>
      <trkpt lat="43.43535" lon="0.56583">
        <ele>239.47</ele>
        <time>2015-04-30T09:53:40Z</time>
      </trkpt>
      <trkpt lat="43.43534" lon="0.56582">
        <ele>239.293</ele>
        <time>2015-04-30T09:53:53Z</time>
      </trkpt>
      <trkpt lat="43.43529" lon="0.56585">
        <ele>239.346</ele>
        <time>2015-04-30T09:54:09Z</time>
      </trkpt>
      <trkpt lat="43.43529" lon="0.56584">
        <ele>239.523</ele>
        <time>2015-04-30T09:54:28Z</time>
      </trkpt>
      <trkpt lat="43.43527" lon="0.5658">
        <ele>239.33</ele>
        <time>2015-04-30T09:54:57Z</time>
      </trkpt>
      <trkpt lat="43.43528" lon="0.56577">
        <ele>239.536</ele>
        <time>2015-04-30T09:55:22Z</time>
      </trkpt>
      <trkpt lat="43.43528" lon="0.56575">
        <ele>239.637</ele>
        <time>2015-04-30T09:55:52Z</time>
      </trkpt>
      <trkpt lat="43.43531" lon="0.56572">
        <ele>239.711</ele>
        <time>2015-04-30T09:56:07Z</time>
      </trkpt>
      <trkpt lat="43.43527" lon="0.56568">
        <ele>239.629</ele>
        <time>2015-04-30T09:56:19Z</time>
      </trkpt>
      <trkpt lat="43.43528" lon="0.56574">
        <ele>239.737</ele>
        <time>2015-04-30T09:56:36Z</time>
      </trkpt>
      <trkpt lat="43.43532" lon="0.56579">
        <ele>239.914</ele>
        <time>2015-04-30T09:57:16Z</time>
      </trkpt>
      <trkpt lat="43.43535" lon="0.56584">
        <ele>239.959</ele>
        <time>2015-04-30T09:57:50Z</time>
      </trkpt>
      <trkpt lat="43.43536" lon="0.56582">
        <ele>240.12</ele>
        <time>2015-04-30T09:58:08Z</time>
      </trkpt>
      <trkpt lat="43.43533" lon="0.56578">
        <ele>239.913</ele>
        <time>2015-04-30T09:58:57Z</time>
      </trkpt>
      <trkpt lat="43.43533" lon="0.56585">
        <ele>240.355</ele>
        <time>2015-04-30T09:59:20Z</time>
      </trkpt>
      <trkpt lat="43.43531" lon="0.56581">
        <ele>241.643</ele>
        <time>2015-04-30T09:59:40Z</time>
      </trkpt>
      <trkpt lat="43.43532" lon="0.56581">
        <ele>239.846</ele>
        <time>2015-04-30T10:00:01Z</time>
      </trkpt>
      <trkpt lat="43.43528" lon="0.56574">
        <ele>239.312</ele>
        <time>2015-04-30T10:01:25Z</time>
      </trkpt>
      <trkpt lat="43.43528" lon="0.56574">
        <ele>241.316</ele>
        <time>2015-04-30T10:01:27Z</time>
      </trkpt>
      <trkpt lat="43.43527" lon="0.56577">
        <ele>240.048</ele>
        <time>2015-04-30T10:01:48Z</time>
      </trkpt>
      <trkpt lat="43.43531" lon="0.56577">
        <ele>240.749</ele>
        <time>2015-04-30T10:03:04Z</time>
      </trkpt>
      <trkpt lat="43.43528" lon="0.56579">
        <ele>240.997</ele>
        <time>2015-04-30T10:04:07Z</time>
      </trkpt>
      <trkpt lat="43.43529" lon="0.56578">
        <ele>242.648</ele>
        <time>2015-04-30T10:04:09Z</time>
      </trkpt>
      <trkpt lat="43.4353" lon="0.56578">
        <ele>242.328</ele>
        <time>2015-04-30T10:04:45Z</time>
      </trkpt>
      <trkpt lat="43.4353" lon="0.56577">
        <ele>240.945</ele>
        <time>2015-04-30T10:04:47Z</time>
      </trkpt>
      <trkpt lat="43.43527" lon="0.56574">
        <ele>242.225</ele>
        <time>2015-04-30T10:05:12Z</time>
      </trkpt>
      <trkpt lat="43.43523" lon="0.56579">
        <ele>240.888</ele>
        <time>2015-04-30T10:05:44Z</time>
      </trkpt>
      <trkpt lat="43.43524" lon="0.56578">
        <ele>242.346</ele>
        <time>2015-04-30T10:05:46Z</time>
      </trkpt>
    </trkseg>
  </trk>
</gpx>